CheckWX is a tool to help pilots better visualize weather data.  It is not intended as a substitute for an official pre-flight weather briefing.

05:39:15 UTC

ENSS METAR
Vardø , Svartnes Airport
Vardø, Norway
Current

9 hours ago

ENSS 252020Z 12015KT 9999 BKN022 09/05 Q1012 RMK WIND 500FT 11014KT
Observed
Aug-25 @ 20:20 UTC
Wind
  • 120° at 15 KTS
Visibility
10,000+ meters
Flight Rules
MVFR
Cloud Levels
  • Broken at 2,200' AGL
Temperature
C / 48°F
Dewpoint
C / 41°F
Humidity
76%
Altimeter
29.88" Hg
Pressure
1011.92 hPa
Previous

10 hours ago

ENSS 251920Z 12017KT 9999 BKN025 09/07 Q1013 RMK WIND 500FT 10015KT
Observed
Aug-25 @ 19:20 UTC
Wind
  • 120° at 17 KTS
Visibility
10,000+ meters
Flight Rules
MVFR
Cloud Levels
  • Broken at 2,500' AGL
Temperature
C / 48°F
Dewpoint
C / 45°F
Humidity
87%
Altimeter
29.91" Hg
Pressure
1012.92 hPa
Previous

11 hours ago

ENSS 251850Z 12018KT 9999 BKN026 09/05 Q1013 RMK WIND 500FT 10015KT
Observed
Aug-25 @ 18:50 UTC
Wind
  • 120° at 18 KTS
Visibility
10,000+ meters
Flight Rules
MVFR
Cloud Levels
  • Broken at 2,600' AGL
Temperature
C / 48°F
Dewpoint
C / 41°F
Humidity
76%
Altimeter
29.91" Hg
Pressure
1012.92 hPa